createdAt,value
2018-09-22T00:00:45.641Z,12.46
2018-09-22T00:01:45.821Z,12.45
2018-09-22T00:02:45.997Z,12.68
2018-09-22T00:03:46.175Z,12.61
2018-09-22T00:04:46.353Z,12.65
2018-09-22T00:05:46.527Z,12.47
2018-09-22T00:06:46.703Z,12.55
2018-09-22T00:07:46.895Z,12.61
2018-09-22T00:08:47.054Z,12.49
2018-09-22T00:09:47.230Z,12.47
2018-09-22T00:10:47.407Z,12.45
2018-09-22T00:11:47.585Z,12.54
2018-09-22T00:12:47.756Z,12.50
2018-09-22T00:13:47.934Z,12.43
2018-09-22T00:14:48.111Z,12.54
2018-09-22T00:15:48.287Z,12.60
2018-09-22T00:16:48.462Z,12.54
2018-09-22T00:17:48.639Z,12.49
2018-09-22T00:18:48.817Z,12.54
2018-09-22T00:19:48.994Z,12.45
2018-09-22T00:20:49.170Z,12.55
2018-09-22T00:21:49.386Z,12.43
2018-09-22T00:22:49.523Z,12.50
2018-09-22T00:23:49.698Z,12.53
2018-09-22T00:24:49.874Z,12.47
2018-09-22T00:25:50.049Z,12.54
2018-09-22T00:26:50.227Z,12.55
2018-09-22T00:27:50.404Z,12.57
2018-09-22T00:28:50.573Z,12.61
2018-09-22T00:29:50.749Z,12.57
2018-09-22T00:30:50.927Z,12.61
2018-09-22T00:31:51.104Z,12.57
2018-09-22T00:32:51.280Z,12.65
2018-09-22T00:33:51.458Z,12.58
2018-09-22T00:34:51.640Z,12.60
2018-09-22T00:35:51.814Z,12.45
2018-09-22T00:36:51.987Z,12.62
2018-09-22T00:37:52.168Z,12.53
2018-09-22T00:38:52.345Z,12.53
2018-09-22T00:39:52.524Z,12.50
2018-09-22T00:40:52.691Z,12.54
2018-09-22T00:41:52.867Z,12.55
2018-09-22T00:42:53.046Z,12.55
2018-09-22T00:43:53.222Z,12.57
2018-09-22T00:44:53.398Z,12.47
2018-09-22T00:45:53.578Z,12.60
2018-09-22T00:46:53.752Z,12.54
2018-09-22T00:47:53.928Z,12.50
2018-09-22T00:48:54.108Z,12.57
2018-09-22T00:49:54.281Z,12.55
2018-09-22T00:50:54.459Z,12.65
2018-09-22T00:51:54.627Z,12.55
2018-09-22T00:52:54.806Z,12.61
2018-09-22T00:53:54.983Z,12.68
2018-09-22T00:54:55.170Z,12.62
2018-09-22T00:55:55.341Z,12.67
2018-09-22T00:56:55.516Z,12.72
2018-09-22T00:57:55.694Z,12.73
2018-09-22T00:58:55.870Z,12.61
2018-09-22T00:59:56.055Z,12.76
2018-09-22T01:00:56.224Z,12.73
2018-09-22T01:01:56.398Z,12.78
2018-09-22T01:02:56.578Z,12.76
2018-09-22T01:03:56.755Z,12.73
2018-09-22T01:04:56.930Z,12.78
2018-09-22T01:05:57.111Z,12.85
2018-09-22T01:06:57.284Z,12.85
2018-09-22T01:07:57.461Z,12.79
2018-09-22T01:08:57.641Z,12.83
2018-09-22T01:09:57.816Z,12.94
2018-09-22T01:10:57.998Z,12.83
2018-09-22T01:11:58.173Z,12.82
2018-09-22T01:12:58.349Z,12.75
2018-09-22T01:13:58.526Z,12.90
2018-09-22T01:14:58.704Z,12.94
2018-09-22T01:15:58.961Z,12.85
2018-09-22T01:16:59.071Z,12.90
2018-09-22T01:17:59.260Z,12.98
2018-09-22T01:18:59.422Z,12.97
2018-09-22T01:19:59.598Z,12.95
2018-09-22T01:20:59.785Z,13.05
2018-09-22T01:21:59.955Z,13.01
2018-09-22T01:23:00.131Z,12.94
2018-09-22T01:24:00.305Z,12.97
2018-09-22T01:25:00.475Z,13.01
2018-09-22T01:26:00.653Z,12.93
2018-09-22T01:27:00.829Z,12.90
2018-09-22T01:28:01.008Z,12.94
2018-09-22T01:29:01.184Z,12.87
2018-09-22T01:30:01.368Z,12.82
2018-09-22T01:31:01.539Z,12.76
2018-09-22T01:32:01.720Z,12.73
2018-09-22T01:33:01.894Z,12.79
2018-09-22T01:34:02.080Z,12.78
2018-09-22T01:35:02.254Z,12.86
2018-09-22T01:36:02.428Z,12.93
2018-09-22T01:37:02.606Z,12.82
2018-09-22T01:38:02.787Z,12.86
2018-09-22T01:39:02.964Z,12.82
2018-09-22T01:40:03.132Z,12.90
2018-09-22T01:41:03.311Z,12.83
2018-09-22T01:42:03.488Z,12.83
2018-09-22T01:43:03.674Z,12.70
2018-09-22T01:44:03.850Z,12.70
2018-09-22T01:45:04.026Z,12.72
2018-09-22T01:46:04.201Z,12.65
2018-09-22T01:47:04.382Z,12.65
2018-09-22T01:48:04.554Z,12.61
2018-09-22T01:49:04.735Z,12.64
2018-09-22T01:50:04.908Z,12.60
2018-09-22T01:51:05.079Z,12.62
2018-09-22T01:52:05.271Z,12.76
2018-09-22T01:53:05.442Z,12.62
2018-09-22T01:54:05.620Z,12.73
2018-09-22T01:55:05.800Z,12.65
2018-09-22T01:56:05.969Z,12.70
2018-09-22T01:57:06.158Z,12.70
2018-09-22T01:58:07.019Z,12.82
2018-09-22T01:59:06.577Z,12.85
2018-09-22T02:00:06.756Z,12.78
2018-09-22T02:01:06.931Z,12.83
2018-09-22T02:02:07.111Z,12.90
2018-09-22T02:03:07.274Z,12.86
2018-09-22T02:04:07.457Z,12.90
2018-09-22T02:05:07.634Z,12.94
2018-09-22T02:06:07.811Z,12.95
2018-09-22T02:07:07.989Z,12.94
2018-09-22T02:08:08.186Z,12.94
2018-09-22T02:09:08.343Z,12.94
2018-09-22T02:10:08.522Z,12.93
2018-09-22T02:11:08.701Z,12.95
2018-09-22T02:12:08.874Z,12.94
2018-09-22T02:13:09.055Z,12.93
2018-09-22T02:14:09.231Z,12.93
2018-09-22T02:15:09.413Z,12.98
2018-09-22T02:16:09.584Z,12.94
2018-09-22T02:17:09.765Z,12.86
2018-09-22T02:18:09.934Z,12.91
2018-09-22T02:19:10.110Z,12.94
2018-09-22T02:20:10.288Z,12.82
2018-09-22T02:21:10.462Z,12.86
2018-09-22T02:22:10.641Z,12.79
2018-09-22T02:23:10.813Z,12.82
2018-09-22T02:24:10.995Z,12.76
2018-09-22T02:25:11.171Z,12.82
2018-09-22T02:26:11.346Z,12.67
2018-09-22T02:27:11.524Z,12.80
2018-09-22T02:28:11.697Z,12.79
2018-09-22T02:29:11.875Z,12.61
2018-09-22T02:30:12.055Z,12.73
2018-09-22T02:31:12.235Z,12.67
2018-09-22T02:32:12.417Z,12.61
2018-09-22T02:33:12.583Z,12.65
2018-09-22T02:34:12.752Z,12.65
2018-09-22T02:35:12.938Z,12.62
2018-09-22T02:36:13.113Z,12.64
2018-09-22T02:37:13.290Z,12.60
2018-09-22T02:38:13.466Z,12.62
2018-09-22T02:39:13.649Z,12.65
2018-09-22T02:40:13.818Z,12.68
2018-09-22T02:41:13.995Z,12.62
2018-09-22T02:42:14.179Z,12.64
2018-09-22T02:43:14.349Z,12.65
2018-09-22T02:44:14.528Z,12.62
2018-09-22T02:45:14.702Z,12.57
2018-09-22T02:46:14.873Z,12.49
2018-09-22T02:47:15.056Z,12.54
2018-09-22T02:48:15.229Z,12.50
2018-09-22T02:49:15.451Z,12.60
2018-09-22T02:50:15.586Z,12.45
2018-09-22T02:51:15.751Z,12.43
2018-09-22T02:52:15.935Z,12.46
2018-09-22T02:53:16.105Z,12.50
2018-09-22T02:54:16.280Z,12.54
2018-09-22T02:55:16.468Z,12.45
2018-09-22T02:56:16.642Z,12.50
2018-09-22T02:57:16.825Z,12.37
2018-09-22T02:58:16.996Z,12.45
2018-09-22T02:59:17.164Z,12.39
2018-09-22T03:00:17.348Z,12.35
2018-09-22T03:01:17.515Z,12.35
2018-09-22T03:02:17.693Z,12.36
2018-09-22T03:03:17.867Z,12.32
2018-09-22T03:04:18.039Z,12.28
2018-09-22T03:05:18.218Z,12.32
2018-09-22T03:06:18.392Z,12.32
2018-09-22T03:07:18.571Z,12.39
2018-09-22T03:08:18.752Z,12.31
2018-09-22T03:09:18.920Z,12.28
2018-09-22T03:10:19.131Z,12.28
2018-09-22T03:11:19.275Z,12.29
2018-09-22T03:12:19.448Z,12.28
2018-09-22T03:13:19.626Z,12.29
2018-09-22T03:14:19.809Z,12.35
2018-09-22T03:15:20.055Z,12.35
2018-09-22T03:16:20.164Z,12.36
2018-09-22T03:17:20.332Z,12.31
2018-09-22T03:18:20.508Z,12.35
2018-09-22T03:19:20.686Z,12.36
2018-09-22T03:20:20.868Z,12.35
2018-09-22T03:21:21.043Z,12.27
2018-09-22T03:22:21.220Z,12.40
2018-09-22T03:23:21.396Z,12.36
2018-09-22T03:24:21.576Z,12.39
2018-09-22T03:25:21.746Z,12.42
2018-09-22T03:26:21.929Z,12.45
2018-09-22T03:27:22.101Z,12.43
2018-09-22T03:28:22.279Z,12.42
2018-09-22T03:29:22.459Z,12.36
2018-09-22T03:30:22.641Z,12.36
2018-09-22T03:31:22.815Z,12.46
2018-09-22T03:32:22.986Z,12.42
2018-09-22T03:33:23.171Z,12.37
2018-09-22T03:34:23.335Z,12.45
2018-09-22T03:35:23.512Z,12.35
2018-09-22T03:36:23.686Z,12.39
2018-09-22T03:37:23.863Z,12.40
2018-09-22T03:38:24.040Z,12.37
2018-09-22T03:39:24.221Z,12.36
2018-09-22T03:40:24.392Z,12.37
2018-09-22T03:41:24.576Z,12.40
2018-09-22T03:42:24.745Z,12.42
2018-09-22T03:43:24.933Z,12.40
2018-09-22T03:44:25.099Z,12.43
2018-09-22T03:45:25.277Z,12.46
2018-09-22T03:46:25.452Z,12.40
2018-09-22T03:47:25.637Z,12.45
2018-09-22T03:48:25.796Z,12.39
2018-09-22T03:49:25.971Z,12.40
2018-09-22T03:50:26.151Z,12.40
2018-09-22T03:51:26.327Z,12.57
2018-09-22T03:52:26.504Z,12.53
2018-09-22T03:53:26.679Z,12.55
2018-09-22T03:54:26.859Z,12.49
2018-09-22T03:55:27.040Z,12.50
2018-09-22T03:56:27.212Z,12.58
2018-09-22T03:57:27.388Z,12.53
2018-09-22T03:58:27.567Z,12.50
2018-09-22T03:59:27.742Z,12.57
2018-09-22T04:00:27.917Z,12.57
2018-09-22T04:01:28.099Z,12.45
2018-09-22T04:02:28.269Z,12.58
2018-09-22T04:03:28.444Z,12.62
2018-09-22T04:04:28.619Z,12.61
2018-09-22T04:05:28.796Z,12.62
2018-09-22T04:06:28.973Z,12.57
2018-09-22T04:07:29.152Z,12.47
2018-09-22T04:08:29.321Z,12.58
2018-09-22T04:09:29.497Z,12.65
2018-09-22T04:10:29.696Z,12.53
2018-09-22T04:11:29.848Z,12.45
2018-09-22T04:12:30.030Z,12.50
2018-09-22T04:13:30.203Z,12.47
2018-09-22T04:14:30.379Z,12.45
2018-09-22T04:15:30.556Z,12.57
2018-09-22T04:16:30.733Z,12.62
2018-09-22T04:17:30.908Z,12.64
2018-09-22T04:18:31.090Z,12.64
2018-09-22T04:19:31.263Z,12.61
2018-09-22T04:20:31.433Z,12.62
2018-09-22T04:21:31.608Z,12.61
2018-09-22T04:22:31.790Z,12.47
2018-09-22T04:23:31.955Z,12.58
2018-09-22T04:24:32.132Z,12.53
2018-09-22T04:25:32.308Z,12.53
2018-09-22T04:26:32.489Z,12.58
2018-09-22T04:27:32.660Z,12.50
2018-09-22T04:28:32.835Z,12.55
2018-09-22T04:29:33.013Z,12.46
2018-09-22T04:30:33.185Z,12.53
2018-09-22T04:31:33.361Z,12.45
2018-09-22T04:32:33.540Z,12.43
2018-09-22T04:33:33.737Z,12.43
2018-09-22T04:34:33.890Z,12.36
2018-09-22T04:35:34.067Z,12.45
2018-09-22T04:36:34.241Z,12.37
2018-09-22T04:37:34.419Z,12.39
2018-09-22T04:38:34.597Z,12.37
2018-09-22T04:39:34.771Z,12.36
2018-09-22T04:40:34.949Z,12.31
2018-09-22T04:41:35.125Z,12.28
2018-09-22T04:42:35.307Z,12.31
2018-09-22T04:43:35.476Z,12.31
2018-09-22T04:44:35.654Z,12.28
2018-09-22T04:45:35.831Z,12.24
2018-09-22T04:46:36.000Z,12.18
2018-09-22T04:47:36.178Z,12.22
2018-09-22T04:48:36.350Z,12.20
2018-09-22T04:49:36.529Z,12.24
2018-09-22T04:50:36.701Z,12.25
2018-09-22T04:51:36.885Z,12.25
2018-09-22T04:52:37.053Z,12.22
2018-09-22T04:53:37.227Z,12.25
2018-09-22T04:54:37.409Z,12.21
2018-09-22T04:55:37.589Z,12.21
2018-09-22T04:56:37.759Z,12.25
2018-09-22T04:57:37.934Z,12.22
2018-09-22T04:58:38.116Z,12.29
2018-09-22T04:59:38.289Z,12.25
2018-09-22T05:00:38.479Z,12.36
2018-09-22T05:01:38.641Z,12.35
2018-09-22T05:02:38.817Z,12.27
2018-09-22T05:03:38.999Z,12.21
2018-09-22T05:04:39.182Z,12.22
2018-09-22T05:05:39.360Z,12.29
2018-09-22T05:06:39.533Z,12.24
2018-09-22T05:07:39.716Z,12.36
2018-09-22T05:08:39.889Z,12.37
2018-09-22T05:09:40.065Z,12.36
2018-09-22T05:10:40.245Z,12.36
2018-09-22T05:11:40.415Z,12.27
2018-09-22T05:12:40.590Z,12.36
2018-09-22T05:13:40.773Z,12.36
2018-09-22T05:14:40.945Z,12.40
2018-09-22T05:15:41.131Z,12.35
2018-09-22T05:16:41.305Z,12.42
2018-09-22T05:17:41.475Z,12.45
2018-09-22T05:18:41.652Z,12.43
2018-09-22T05:19:41.833Z,12.40
2018-09-22T05:20:42.010Z,12.37
2018-09-22T05:21:42.183Z,12.42
2018-09-22T05:22:42.357Z,12.43
2018-09-22T05:23:42.539Z,12.43
2018-09-22T05:24:42.723Z,12.40
2018-09-22T05:25:42.892Z,12.45
2018-09-22T05:26:43.069Z,12.40
2018-09-22T05:27:43.258Z,12.43
2018-09-22T05:28:43.422Z,12.47
2018-09-22T05:29:43.603Z,12.37
2018-09-22T05:30:43.778Z,12.32
2018-09-22T05:31:43.957Z,12.42
2018-09-22T05:32:44.136Z,12.27
2018-09-22T05:33:44.317Z,12.22
2018-09-22T05:34:44.494Z,12.22
2018-09-22T05:35:44.672Z,12.28
2018-09-22T05:36:44.844Z,12.29
2018-09-22T05:37:45.014Z,12.24
2018-09-22T05:38:45.189Z,12.21
2018-09-22T05:39:45.368Z,12.15
2018-09-22T05:40:45.542Z,12.25
2018-09-22T05:41:45.743Z,12.13
2018-09-22T05:42:45.898Z,12.22
2018-09-22T05:43:46.074Z,12.28
2018-09-22T05:44:46.252Z,12.22
2018-09-22T05:45:46.429Z,12.20
2018-09-22T05:46:46.607Z,12.24
2018-09-22T05:47:46.783Z,12.25
2018-09-22T05:48:46.961Z,12.25
2018-09-22T05:49:47.137Z,12.20
2018-09-22T05:50:47.315Z,12.29
2018-09-22T05:51:47.502Z,12.35
2018-09-22T05:52:47.682Z,12.25
2018-09-22T05:53:47.848Z,12.21
2018-09-22T05:54:48.038Z,12.39
2018-09-22T05:55:48.220Z,12.42
2018-09-22T05:56:48.395Z,12.43
2018-09-22T05:57:48.572Z,12.49
2018-09-22T05:58:48.752Z,12.61
2018-09-22T05:59:48.932Z,12.50
2018-09-22T06:00:49.111Z,12.68
2018-09-22T06:01:49.289Z,12.91
2018-09-22T06:02:49.467Z,13.16
2018-09-22T06:03:49.774Z,13.05
2018-09-22T06:04:49.815Z,12.97
2018-09-22T06:05:49.993Z,13.03
2018-09-22T06:06:50.172Z,13.15
2018-09-22T06:07:50.349Z,13.18
2018-09-22T06:08:50.527Z,13.04
2018-09-22T06:09:50.706Z,13.11
2018-09-22T06:10:50.879Z,13.00
2018-09-22T06:11:51.055Z,12.94
2018-09-22T06:12:51.235Z,12.73
2018-09-22T06:13:51.411Z,12.67
2018-09-22T06:14:51.594Z,12.75
2018-09-22T06:15:51.780Z,12.90
2018-09-22T06:16:51.946Z,12.79
2018-09-22T06:17:52.124Z,12.76
2018-09-22T06:18:52.299Z,12.65
2018-09-22T06:19:52.477Z,12.62
2018-09-22T06:20:52.656Z,12.72
2018-09-22T06:21:52.838Z,12.58
2018-09-22T06:22:53.008Z,12.82
2018-09-22T06:23:53.189Z,13.18
2018-09-22T06:24:53.353Z,13.57
2018-09-22T06:25:53.532Z,13.85
2018-09-22T06:26:53.714Z,13.67
2018-09-22T06:27:53.883Z,13.75
2018-09-22T06:28:54.161Z,13.47
2018-09-22T06:29:54.250Z,13.47
2018-09-22T06:30:54.417Z,13.49
2018-09-22T06:31:54.777Z,13.46
2018-09-22T06:32:54.773Z,13.47
2018-09-22T06:33:55.262Z,13.47
2018-09-22T06:34:55.104Z,13.31
2018-09-22T06:35:56.239Z,13.50
2018-09-22T06:36:55.498Z,13.41
2018-09-22T06:37:55.733Z,13.47
2018-09-22T06:38:55.867Z,13.35
2018-09-22T06:39:56.042Z,13.33
2018-09-22T06:40:56.204Z,13.42
2018-09-22T06:41:56.395Z,13.46
2018-09-22T06:42:56.558Z,13.47
2018-09-22T06:43:56.736Z,13.54
2018-09-22T06:44:56.913Z,13.74
2018-09-22T06:45:57.091Z,13.62
2018-09-22T06:46:57.269Z,13.77
2018-09-22T06:47:57.454Z,14.03
2018-09-22T06:48:57.623Z,14.12
2018-09-22T06:49:57.807Z,14.00
2018-09-22T06:50:57.993Z,13.89
2018-09-22T06:51:58.154Z,13.75
2018-09-22T06:52:58.333Z,13.93
2018-09-22T06:53:58.512Z,13.87
2018-09-22T06:54:58.744Z,13.97
2018-09-22T06:55:58.866Z,14.05
2018-09-22T06:56:59.045Z,13.99
2018-09-22T06:57:59.218Z,13.75
2018-09-22T06:58:59.395Z,13.60
2018-09-22T06:59:59.575Z,13.60
2018-09-22T07:00:59.762Z,13.72
2018-09-22T07:01:59.933Z,13.57
2018-09-22T07:03:00.101Z,13.57
2018-09-22T07:04:00.284Z,13.89
2018-09-22T07:05:00.480Z,13.96
2018-09-22T07:06:00.640Z,13.99
2018-09-22T07:07:00.816Z,13.96
2018-09-22T07:08:00.996Z,13.97
2018-09-22T07:09:01.170Z,14.12
2018-09-22T07:10:01.353Z,14.44
2018-09-22T07:11:01.545Z,14.73
2018-09-22T07:12:01.712Z,15.00
2018-09-22T07:13:01.888Z,14.62
2018-09-22T07:14:02.068Z,14.58
2018-09-22T07:15:02.249Z,15.00
2018-09-22T07:16:02.428Z,14.97
2018-09-22T07:17:02.597Z,15.04
2018-09-22T07:18:02.801Z,15.19
2018-09-22T07:19:02.960Z,15.24
2018-09-22T07:20:03.150Z,15.25
2018-09-22T07:21:03.321Z,15.18
2018-09-22T07:22:03.497Z,15.42
2018-09-22T07:23:03.683Z,14.92
2018-09-22T07:24:03.864Z,15.04
2018-09-22T07:25:04.034Z,15.10
2018-09-22T07:26:04.207Z,15.42
2018-09-22T07:27:04.400Z,15.64
2018-09-22T07:28:04.571Z,15.61
2018-09-22T07:29:04.753Z,15.70
2018-09-22T07:30:04.933Z,15.76
2018-09-22T07:31:05.105Z,15.64
2018-09-22T07:32:05.280Z,15.77
2018-09-22T07:33:05.463Z,15.76
2018-09-22T07:34:05.636Z,15.97
2018-09-22T07:35:05.820Z,16.29
2018-09-22T07:36:06.006Z,16.46
2018-09-22T07:37:06.178Z,16.56
2018-09-22T07:38:06.359Z,16.56
2018-09-22T07:39:06.537Z,16.58
2018-09-22T07:40:06.718Z,16.87
2018-09-22T07:41:06.914Z,16.86
2018-09-22T07:42:07.083Z,16.89
2018-09-22T07:43:07.262Z,16.78
2018-09-22T07:44:07.447Z,16.99
2018-09-22T07:45:08.533Z,17.12
2018-09-22T07:46:07.781Z,17.20
2018-09-22T07:47:07.978Z,17.36
2018-09-22T07:48:08.138Z,17.54
2018-09-22T07:49:08.326Z,17.67
2018-09-22T07:50:08.508Z,17.85
2018-09-22T07:51:08.677Z,17.06
2018-09-22T07:52:08.860Z,17.38
2018-09-22T07:53:09.035Z,17.34
2018-09-22T07:54:09.235Z,17.01
2018-09-22T07:55:09.400Z,17.15
2018-09-22T07:56:09.580Z,17.44
2018-09-22T07:57:09.796Z,17.48
2018-09-22T07:58:09.954Z,17.94
2018-09-22T07:59:10.137Z,18.03
2018-09-22T08:00:10.351Z,17.89
2018-09-22T08:01:10.499Z,17.90
2018-09-22T08:02:10.675Z,18.25
2018-09-22T08:03:10.857Z,18.40
2018-09-22T08:04:11.050Z,18.50
2018-09-22T08:05:11.226Z,18.13
2018-09-22T08:06:11.406Z,18.38
2018-09-22T08:07:11.584Z,18.80
2018-09-22T08:08:11.768Z,18.96
2018-09-22T08:09:11.953Z,18.95
2018-09-22T08:10:12.132Z,19.12
2018-09-22T08:11:12.330Z,18.52
2018-09-22T08:12:12.497Z,18.28
2018-09-22T08:13:12.679Z,17.89
2018-09-22T08:14:12.862Z,17.92
2018-09-22T08:15:13.043Z,17.87
2018-09-22T08:16:13.225Z,17.64
2018-09-22T08:17:13.410Z,17.16
2018-09-22T08:18:13.591Z,16.78
2018-09-22T08:19:13.788Z,17.08
2018-09-22T08:20:13.963Z,17.33
2018-09-22T08:21:14.138Z,16.69
2018-09-22T08:22:14.325Z,16.69
2018-09-22T08:23:14.518Z,16.47
2018-09-22T08:24:14.705Z,16.90
2018-09-22T08:25:14.908Z,17.39
2018-09-22T08:26:15.054Z,17.27
2018-09-22T08:28:15.416Z,16.91
2018-09-22T08:29:15.577Z,16.75
2018-09-22T08:30:15.783Z,17.02
2018-09-22T08:31:15.948Z,17.31
2018-09-22T08:32:16.127Z,17.90
2018-09-22T08:33:16.314Z,18.22
2018-09-22T08:34:16.507Z,18.01
2018-09-22T08:35:16.695Z,17.95
2018-09-22T08:36:16.942Z,18.18
2018-09-22T08:37:17.097Z,18.44
2018-09-22T08:38:17.220Z,18.22
2018-09-22T08:39:17.399Z,18.34
2018-09-22T08:40:17.587Z,18.52
2018-09-22T08:41:17.770Z,18.22
2018-09-22T08:42:17.954Z,18.15
2018-09-22T08:43:18.147Z,18.16
2018-09-22T08:44:18.335Z,18.45
2018-09-22T08:45:18.522Z,18.62
2018-09-22T08:46:18.697Z,18.45
2018-09-22T08:47:18.879Z,18.31
2018-09-22T08:48:19.065Z,18.07
2018-09-22T08:49:19.240Z,18.26
2018-09-22T08:50:19.420Z,18.03
2018-09-22T08:51:19.600Z,17.92
2018-09-22T08:52:19.782Z,17.94
2018-09-22T08:53:19.967Z,17.49
2018-09-22T08:54:20.154Z,17.31
2018-09-22T08:55:20.397Z,17.15
2018-09-22T08:56:20.524Z,16.96
2018-09-22T08:57:20.706Z,17.15
2018-09-22T08:58:20.878Z,17.08
2018-09-22T08:59:21.060Z,17.26
2018-09-22T09:00:21.293Z,17.15
2018-09-22T09:01:21.425Z,17.64
2018-09-22T09:02:21.612Z,17.76
2018-09-22T09:03:21.781Z,18.00
2018-09-22T09:04:21.959Z,18.05
2018-09-22T09:05:22.140Z,17.94
2018-09-22T09:06:22.327Z,17.90
2018-09-22T09:07:22.510Z,18.18
2018-09-22T09:08:22.696Z,18.28
2018-09-22T09:09:22.854Z,18.40
2018-09-22T09:10:23.043Z,18.83
2018-09-22T09:11:23.255Z,19.04
2018-09-22T09:12:23.394Z,19.44
2018-09-22T09:13:23.664Z,19.12
2018-09-22T09:14:23.816Z,19.34
2018-09-22T09:15:23.946Z,19.59
2018-09-22T09:16:24.125Z,19.88
2018-09-22T09:17:24.360Z,20.14
2018-09-22T09:18:24.490Z,19.79
2018-09-22T09:19:24.675Z,19.37
2018-09-22T09:20:24.859Z,19.39
2018-09-22T09:21:25.052Z,19.19
2018-09-22T09:22:25.240Z,19.37
2018-09-22T09:23:25.414Z,19.09
2018-09-22T09:24:25.605Z,19.08
2018-09-22T09:25:25.833Z,19.40
2018-09-22T09:26:25.957Z,18.81
2018-09-22T09:27:26.140Z,18.63
2018-09-22T09:28:26.314Z,18.23
2018-09-22T09:29:26.500Z,18.49
2018-09-22T09:30:26.704Z,18.60
2018-09-22T09:31:26.875Z,18.78
2018-09-22T09:32:27.035Z,19.12
2018-09-22T09:33:27.212Z,18.25
2018-09-22T09:34:27.391Z,18.08
2018-09-22T09:35:27.576Z,18.19
2018-09-22T09:36:27.753Z,18.22
2018-09-22T09:37:27.947Z,18.59
2018-09-22T09:38:28.124Z,18.44
2018-09-22T09:39:28.301Z,18.86
2018-09-22T09:40:28.480Z,18.93
2018-09-22T09:41:28.662Z,18.65
2018-09-22T09:42:28.839Z,18.43
2018-09-22T09:43:29.031Z,18.05
2018-09-22T09:44:29.200Z,17.83
2018-09-22T09:45:29.382Z,17.79
2018-09-22T09:46:29.565Z,17.83
2018-09-22T09:47:29.757Z,17.95
2018-09-22T09:48:29.941Z,17.59
2018-09-22T09:49:30.124Z,17.80
2018-09-22T09:50:30.305Z,18.55
2018-09-22T09:51:30.494Z,18.90
2018-09-22T09:52:30.696Z,19.29
2018-09-22T09:53:30.839Z,18.95
2018-09-22T09:54:31.042Z,19.40
2018-09-22T09:55:31.208Z,19.76
2018-09-22T09:56:31.392Z,20.09
2018-09-22T09:57:31.584Z,20.24
2018-09-22T09:58:31.754Z,20.43
2018-09-22T09:59:31.942Z,20.78
2018-09-22T10:00:32.130Z,21.07
2018-09-22T10:01:32.308Z,21.03
2018-09-22T10:02:32.496Z,20.88
2018-09-22T10:03:32.678Z,21.03
2018-09-22T10:04:32.906Z,21.30
2018-09-22T10:05:33.049Z,21.52
2018-09-22T10:06:33.247Z,21.27
2018-09-22T10:07:33.408Z,21.06
2018-09-22T10:08:33.591Z,20.93
2018-09-22T10:09:33.773Z,20.44
2018-09-22T10:10:33.961Z,20.66
2018-09-22T10:11:34.158Z,21.12
2018-09-22T10:12:34.319Z,20.90
2018-09-22T10:13:34.500Z,20.77
2018-09-22T10:14:34.687Z,21.02
2018-09-22T10:15:34.888Z,21.06
2018-09-22T10:16:35.052Z,20.60
2018-09-22T10:17:35.242Z,20.69
2018-09-22T10:18:35.425Z,20.19
2018-09-22T10:19:35.613Z,20.37
2018-09-22T10:20:35.792Z,20.63
2018-09-22T10:21:35.999Z,21.12
2018-09-22T10:22:36.165Z,20.70
2018-09-22T10:23:36.347Z,19.94
2018-09-22T10:24:36.521Z,20.31
2018-09-22T10:25:36.704Z,20.59
2018-09-22T10:26:36.893Z,20.21
2018-09-22T10:27:37.078Z,19.85
2018-09-22T10:28:37.409Z,19.67
2018-09-22T10:29:37.447Z,19.84
2018-09-22T10:30:37.628Z,20.56
2018-09-22T10:31:37.807Z,20.78
2018-09-22T10:32:37.980Z,20.06
2018-09-22T10:33:38.187Z,19.94
2018-09-22T10:34:38.369Z,19.79
2018-09-22T10:35:38.557Z,19.71
2018-09-22T10:36:38.737Z,20.09
2018-09-22T10:37:38.919Z,19.77
2018-09-22T10:38:39.098Z,19.63
2018-09-22T10:39:39.284Z,19.39
2018-09-22T10:40:39.473Z,19.14
2018-09-22T10:41:39.648Z,18.84
2018-09-22T10:42:39.832Z,19.15
2018-09-22T10:43:40.023Z,20.10
2018-09-22T10:44:40.203Z,20.93
2018-09-22T10:45:40.379Z,21.21
2018-09-22T10:46:40.568Z,20.63
2018-09-22T10:47:40.744Z,20.82
2018-09-22T10:48:40.938Z,20.56
2018-09-22T10:49:41.115Z,20.41
2018-09-22T10:50:41.307Z,20.52
2018-09-22T10:51:41.485Z,20.22
2018-09-22T10:52:41.756Z,19.95
2018-09-22T10:53:41.855Z,20.21
2018-09-22T10:54:42.044Z,19.88
2018-09-22T10:55:42.223Z,19.85
2018-09-22T10:56:42.403Z,19.85
2018-09-22T10:57:42.589Z,19.70
2018-09-22T10:58:42.773Z,19.85
2018-09-22T10:59:42.938Z,19.64
2018-09-22T11:00:43.121Z,19.37
2018-09-22T11:01:43.303Z,19.59
2018-09-22T11:02:43.495Z,19.99
2018-09-22T11:03:43.670Z,20.34
2018-09-22T11:04:43.855Z,21.07
2018-09-22T11:05:44.035Z,21.52
2018-09-22T11:06:44.222Z,21.70
2018-09-22T11:07:44.397Z,21.52
2018-09-22T11:08:44.589Z,21.52
2018-09-22T11:09:44.766Z,21.40
2018-09-22T11:10:44.948Z,21.32
2018-09-22T11:11:45.133Z,20.75
2018-09-22T11:12:45.316Z,21.15
2018-09-22T11:13:45.500Z,21.42
2018-09-22T11:14:45.691Z,21.62
2018-09-22T11:15:45.873Z,21.67
2018-09-22T11:16:46.062Z,21.62
2018-09-22T11:17:46.243Z,21.45
2018-09-22T11:18:46.428Z,21.32
2018-09-22T11:19:46.614Z,21.22
2018-09-22T11:20:46.801Z,21.24
2018-09-22T11:21:46.982Z,21.30
2018-09-22T11:22:47.165Z,21.37
2018-09-22T11:23:47.358Z,21.50
2018-09-22T11:24:47.540Z,21.46
2018-09-22T11:25:47.721Z,21.40
2018-09-22T11:26:47.947Z,21.18
2018-09-22T11:27:48.090Z,20.85
2018-09-22T11:28:48.264Z,20.70
2018-09-22T11:29:48.446Z,20.70
2018-09-22T11:30:48.617Z,20.75
2018-09-22T11:31:48.803Z,20.62
2018-09-22T11:32:48.987Z,20.65
2018-09-22T11:33:49.168Z,20.77
2018-09-22T11:34:49.360Z,20.85
2018-09-22T11:35:49.536Z,20.97
2018-09-22T11:36:49.715Z,20.67
2018-09-22T11:37:49.900Z,20.58
2018-09-22T11:38:50.087Z,20.80
2018-09-22T11:39:50.266Z,20.65
2018-09-22T11:40:50.458Z,20.66
2018-09-22T11:41:50.646Z,20.34
2018-09-22T11:42:50.810Z,20.36
2018-09-22T11:43:50.988Z,20.22
2018-09-22T11:44:51.170Z,20.09
2018-09-22T11:45:51.356Z,20.22
2018-09-22T11:46:51.544Z,20.22
2018-09-22T11:47:51.720Z,20.22
2018-09-22T11:48:51.912Z,20.11
2018-09-22T11:49:52.096Z,19.92
2018-09-22T11:50:52.272Z,19.89
2018-09-22T11:51:52.454Z,19.73
2018-09-22T11:52:52.639Z,19.79
2018-09-22T11:53:52.830Z,19.66
2018-09-22T11:54:53.012Z,19.59
2018-09-22T11:55:53.198Z,19.76
2018-09-22T11:56:53.372Z,19.81
2018-09-22T11:57:53.557Z,19.99
2018-09-22T11:58:53.739Z,20.07
2018-09-22T11:59:53.937Z,20.22
2018-09-22T12:00:54.122Z,20.37
2018-09-22T12:01:54.336Z,20.37
2018-09-22T12:02:54.467Z,20.40
2018-09-22T12:03:54.650Z,20.40
2018-09-22T12:04:54.828Z,20.62
2018-09-22T12:05:55.102Z,20.59
2018-09-22T12:06:55.202Z,20.51
2018-09-22T12:07:55.381Z,20.40
2018-09-22T12:08:55.581Z,20.31
2018-09-22T12:09:55.746Z,20.37
2018-09-22T12:10:55.923Z,20.25
2018-09-22T12:11:56.103Z,20.13
2018-09-22T12:12:56.293Z,20.07
2018-09-22T12:13:56.510Z,19.85
2018-09-22T12:14:56.670Z,19.92
2018-09-22T12:15:56.830Z,19.79
2018-09-22T12:16:57.011Z,19.66
2018-09-22T12:17:57.197Z,19.63
2018-09-22T12:18:57.392Z,19.64
2018-09-22T12:19:57.549Z,19.62
2018-09-22T12:20:57.734Z,19.69
2018-09-22T12:21:57.916Z,19.70
2018-09-22T12:22:58.096Z,19.52
2018-09-22T12:23:58.268Z,19.62
2018-09-22T12:24:58.449Z,19.62
2018-09-22T12:25:58.630Z,19.66
2018-09-22T12:26:58.829Z,19.70
2018-09-22T12:27:59.004Z,19.85
2018-09-22T12:28:59.178Z,19.89
2018-09-22T12:29:59.349Z,19.79
2018-09-22T12:30:59.532Z,19.52
2018-09-22T12:31:59.756Z,19.41
2018-09-22T12:32:59.892Z,19.62
2018-09-22T12:34:00.071Z,19.41
2018-09-22T12:35:00.255Z,19.39
2018-09-22T12:36:00.438Z,19.40
2018-09-22T12:37:00.623Z,19.47
2018-09-22T12:38:00.800Z,19.63
2018-09-22T12:39:00.994Z,19.41
2018-09-22T12:40:01.157Z,19.34
2018-09-22T12:41:01.343Z,19.33
2018-09-22T12:42:01.542Z,19.21
2018-09-22T12:43:01.719Z,19.16
2018-09-22T12:44:01.893Z,19.29
2018-09-22T12:45:02.075Z,19.37
2018-09-22T12:46:02.269Z,19.39
2018-09-22T12:47:02.435Z,19.40
2018-09-22T12:48:02.626Z,19.22
2018-09-22T12:49:02.795Z,19.21
2018-09-22T12:50:02.982Z,19.15
2018-09-22T12:51:03.164Z,19.29
2018-09-22T12:52:03.343Z,19.40
2018-09-22T12:53:03.519Z,19.33
2018-09-22T12:54:03.702Z,19.30
2018-09-22T12:55:03.893Z,19.31
2018-09-22T12:56:04.056Z,19.39